sensor_id;sensor_type;location;lat;lon;timestamp;pressure;altitude;pressure_sealevel;temperature;humidity
15056;BME280;7626;42.674;23.284;2022-12-18T00:02:01;95498.31;;;12.49;72.31
15056;BME280;7626;42.674;23.284;2022-12-18T00:04:29;95501.88;;;12.48;72.03
15056;BME280;7626;42.674;23.284;2022-12-18T00:06:56;95508.81;;;12.48;72.09
15056;BME280;7626;42.674;23.284;2022-12-18T00:09:23;95510.59;;;12.47;72.05
15056;BME280;7626;42.674;23.284;2022-12-18T00:11:50;95508.94;;;12.46;71.72
15056;BME280;7626;42.674;23.284;2022-12-18T00:14:18;95511.63;;;12.45;71.91
15056;BME280;7626;42.674;23.284;2022-12-18T00:16:45;95512.59;;;12.44;71.73
15056;BME280;7626;42.674;23.284;2022-12-18T00:19:13;95523.94;;;12.43;71.79
15056;BME280;7626;42.674;23.284;2022-12-18T00:21:41;95517.09;;;12.42;71.88
15056;BME280;7626;42.674;23.284;2022-12-18T00:24:09;95519.69;;;12.42;71.85
15056;BME280;7626;42.674;23.284;2022-12-18T00:26:37;95528.31;;;12.42;71.91
15056;BME280;7626;42.674;23.284;2022-12-18T00:29:07;95537.03;;;12.41;71.91
15056;BME280;7626;42.674;23.284;2022-12-18T00:31:37;95532.78;;;12.40;71.75
15056;BME280;7626;42.674;23.284;2022-12-18T00:34:04;95538.91;;;12.39;71.84
15056;BME280;7626;42.674;23.284;2022-12-18T00:36:32;95537.25;;;12.38;71.70
15056;BME280;7626;42.674;23.284;2022-12-18T00:39:02;95533.81;;;12.38;71.56
15056;BME280;7626;42.674;23.284;2022-12-18T00:41:29;95533.94;;;12.36;71.45
15056;BME280;7626;42.674;23.284;2022-12-18T00:44:16;95540.91;;;12.36;71.29
15056;BME280;7626;42.674;23.284;2022-12-18T00:46:45;95540.91;;;12.36;71.55
15056;BME280;7626;42.674;23.284;2022-12-18T00:49:12;95547.03;;;12.34;71.71
15056;BME280;7626;42.674;23.284;2022-12-18T00:51:39;95544.66;;;12.31;71.40
15056;BME280;7626;42.674;23.284;2022-12-18T00:54:06;95550.69;;;12.32;71.42
15056;BME280;7626;42.674;23.284;2022-12-18T00:56:35;95555.03;;;12.31;71.31
15056;BME280;7626;42.674;23.284;2022-12-18T00:59:02;95554.31;;;12.29;71.12
15056;BME280;7626;42.674;23.284;2022-12-18T01:01:29;95555.16;;;12.30;71.29
15056;BME280;7626;42.674;23.284;2022-12-18T01:03:57;95557.84;;;12.28;71.21
15056;BME280;7626;42.674;23.284;2022-12-18T01:06:24;95561.41;;;12.27;71.24
15056;BME280;7626;42.674;23.284;2022-12-18T01:08:51;95555.34;;;12.27;71.28
15056;BME280;7626;42.674;23.284;2022-12-18T01:11:19;95565.03;;;12.25;71.26
15056;BME280;7626;42.674;23.284;2022-12-18T01:13:46;95563.28;;;12.25;71.15
15056;BME280;7626;42.674;23.284;2022-12-18T01:16:14;95572.00;;;12.24;71.21
15056;BME280;7626;42.674;23.284;2022-12-18T01:18:42;95572.94;;;12.23;71.27
15056;BME280;7626;42.674;23.284;2022-12-18T01:21:12;95570.34;;;12.23;70.71
15056;BME280;7626;42.674;23.284;2022-12-18T01:23:39;95571.28;;;12.22;70.64
15056;BME280;7626;42.674;23.284;2022-12-18T01:26:07;95569.63;;;12.21;70.84
15056;BME280;7626;42.674;23.284;2022-12-18T01:28:34;95582.72;;;12.20;70.94
15056;BME280;7626;42.674;23.284;2022-12-18T01:31:17;95570.53;;;12.20;70.46
15056;BME280;7626;42.674;23.284;2022-12-18T01:33:44;95581.06;;;12.19;70.83
15056;BME280;7626;42.674;23.284;2022-12-18T01:36:20;95582.81;;;12.18;70.53
15056;BME280;7626;42.674;23.284;2022-12-18T01:38:48;95589.09;;;12.15;70.80
15056;BME280;7626;42.674;23.284;2022-12-18T01:41:16;95587.31;;;12.16;70.34
15056;BME280;7626;42.674;23.284;2022-12-18T01:43:45;95587.31;;;12.16;70.74
15056;BME280;7626;42.674;23.284;2022-12-18T01:46:12;95597.00;;;12.14;70.55
15056;BME280;7626;42.674;23.284;2022-12-18T01:48:40;95592.59;;;12.14;70.53
15056;BME280;7626;42.674;23.284;2022-12-18T01:51:09;95591.78;;;12.14;70.18
15056;BME280;7626;42.674;23.284;2022-12-18T01:53:39;95598.00;;;12.11;70.33
15056;BME280;7626;42.674;23.284;2022-12-18T01:56:07;95592.09;;;12.09;70.22
15056;BME280;7626;42.674;23.284;2022-12-18T01:58:40;95600.72;;;12.10;69.98
15056;BME280;7626;42.674;23.284;2022-12-18T02:01:08;95596.47;;;12.09;69.96
15056;BME280;7626;42.674;23.284;2022-12-18T02:03:35;95590.41;;;12.08;70.22
15056;BME280;7626;42.674;23.284;2022-12-18T02:06:09;95597.50;;;12.06;69.93
15056;BME280;7626;42.674;23.284;2022-12-18T02:08:43;95596.66;;;12.06;69.65
15056;BME280;7626;42.674;23.284;2022-12-18T02:11:19;95598.41;;;12.05;70.01
15056;BME280;7626;42.674;23.284;2022-12-18T02:13:58;95607.16;;;12.04;69.67
15056;BME280;7626;42.674;23.284;2022-12-18T02:16:34;95608.91;;;12.04;69.86
15056;BME280;7626;42.674;23.284;2022-12-18T02:19:11;95613.28;;;12.03;69.70
15056;BME280;7626;42.674;23.284;2022-12-18T02:21:49;95621.09;;;12.03;69.75
15056;BME280;7626;42.674;23.284;2022-12-18T02:24:29;95616.00;;;12.02;69.60
15056;BME280;7626;42.674;23.284;2022-12-18T02:27:03;95617.88;;;12.00;69.67
15056;BME280;7626;42.674;23.284;2022-12-18T02:29:35;95623.88;;;12.00;69.68
15056;BME280;7626;42.674;23.284;2022-12-18T02:32:07;95625.66;;;12.00;69.60
15056;BME280;7626;42.674;23.284;2022-12-18T02:34:38;95626.59;;;11.99;69.48
15056;BME280;7626;42.674;23.284;2022-12-18T02:37:10;95618.91;;;11.97;69.76
15056;BME280;7626;42.674;23.284;2022-12-18T02:39:41;95618.06;;;11.96;69.59
15056;BME280;7626;42.674;23.284;2022-12-18T02:42:11;95624.19;;;11.95;69.74
15056;BME280;7626;42.674;23.284;2022-12-18T02:44:42;95625.97;;;11.95;69.38
15056;BME280;7626;42.674;23.284;2022-12-18T02:47:10;95627.84;;;11.93;69.42
15056;BME280;7626;42.674;23.284;2022-12-18T02:49:44;95626.06;;;11.93;69.29
15056;BME280;7626;42.674;23.284;2022-12-18T02:52:23;95627.03;;;11.92;69.53
15056;BME280;7626;42.674;23.284;2022-12-18T02:55:00;95634.88;;;11.91;69.29
15056;BME280;7626;42.674;23.284;2022-12-18T02:57:40;95624.50;;;11.91;69.37
15056;BME280;7626;42.674;23.284;2022-12-18T03:00:13;95612.44;;;11.90;69.31
15056;BME280;7626;42.674;23.284;2022-12-18T03:02:45;95629.78;;;11.89;69.32
15056;BME280;7626;42.674;23.284;2022-12-18T03:05:16;95637.69;;;11.88;68.93
15056;BME280;7626;42.674;23.284;2022-12-18T03:07:48;95649.00;;;11.87;69.11
15056;BME280;7626;42.674;23.284;2022-12-18T03:10:20;95652.53;;;11.86;68.81
15056;BME280;7626;42.674;23.284;2022-12-18T03:12:54;95653.47;;;11.85;68.57
15056;BME280;7626;42.674;23.284;2022-12-18T03:15:27;95651.78;;;11.84;68.44
15056;BME280;7626;42.674;23.284;2022-12-18T03:17:59;95656.16;;;11.83;68.96
15056;BME280;7626;42.674;23.284;2022-12-18T03:20:30;95651.91;;;11.82;68.55
15056;BME280;7626;42.674;23.284;2022-12-18T03:23:04;95660.66;;;11.81;68.74
15056;BME280;7626;42.674;23.284;2022-12-18T03:25:35;95655.44;;;11.81;68.80
15056;BME280;7626;42.674;23.284;2022-12-18T03:28:10;95655.44;;;11.81;68.58
15056;BME280;7626;42.674;23.284;2022-12-18T03:30:40;95660.75;;;11.79;68.52
15056;BME280;7626;42.674;23.284;2022-12-18T03:33:10;95665.19;;;11.77;68.39
15056;BME280;7626;42.674;23.284;2022-12-18T03:35:40;95672.06;;;11.78;68.63
15056;BME280;7626;42.674;23.284;2022-12-18T03:38:08;95669.47;;;11.78;68.42
15056;BME280;7626;42.674;23.284;2022-12-18T03:40:50;95676.53;;;11.76;68.63
15056;BME280;7626;42.674;23.284;2022-12-18T03:43:33;95686.91;;;11.76;68.15
15056;BME280;7626;42.674;23.284;2022-12-18T03:46:07;95683.59;;;11.74;68.44
15056;BME280;7626;42.674;23.284;2022-12-18T03:48:39;95689.59;;;11.75;68.64
15056;BME280;7626;42.674;23.284;2022-12-18T03:51:10;95694.91;;;11.73;68.25
15056;BME280;7626;42.674;23.284;2022-12-18T03:53:43;95701.03;;;11.72;68.48
15056;BME280;7626;42.674;23.284;2022-12-18T03:56:15;95700.19;;;11.72;68.24
15056;BME280;7626;42.674;23.284;2022-12-18T03:58:45;95695.81;;;11.72;68.42
15056;BME280;7626;42.674;23.284;2022-12-18T04:01:15;95706.31;;;11.71;68.28
15056;BME280;7626;42.674;23.284;2022-12-18T04:03:44;95706.31;;;11.71;68.35
15056;BME280;7626;42.674;23.284;2022-12-18T04:06:13;95702.88;;;11.70;68.42
15056;BME280;7626;42.674;23.284;2022-12-18T04:08:41;95717.75;;;11.68;68.13
15056;BME280;7626;42.674;23.284;2022-12-18T04:11:09;95715.97;;;11.69;67.96
15056;BME280;7626;42.674;23.284;2022-12-18T04:13:37;95724.72;;;11.68;68.14
15056;BME280;7626;42.674;23.284;2022-12-18T04:16:06;95735.13;;;11.68;68.21
15056;BME280;7626;42.674;23.284;2022-12-18T04:18:33;95731.75;;;11.66;68.32
15056;BME280;7626;42.674;23.284;2022-12-18T04:21:00;95744.75;;;11.66;68.07
15056;BME280;7626;42.674;23.284;2022-12-18T04:23:26;95731.84;;;11.64;68.10
15056;BME280;7626;42.674;23.284;2022-12-18T04:25:53;95740.59;;;11.63;67.89
15056;BME280;7626;42.674;23.284;2022-12-18T04:28:20;95737.25;;;11.61;67.76
15056;BME280;7626;42.674;23.284;2022-12-18T04:30:47;95743.28;;;11.62;67.88
15056;BME280;7626;42.674;23.284;2022-12-18T04:33:15;95743.38;;;11.60;67.97
15056;BME280;7626;42.674;23.284;2022-12-18T04:35:43;95751.06;;;11.62;67.74
15056;BME280;7626;42.674;23.284;2022-12-18T04:38:10;95758.97;;;11.60;67.83
15056;BME280;7626;42.674;23.284;2022-12-18T04:40:37;95759.88;;;11.59;67.70
15056;BME280;7626;42.674;23.284;2022-12-18T04:43:04;95770.28;;;11.59;67.76
15056;BME280;7626;42.674;23.284;2022-12-18T04:45:31;95776.41;;;11.58;67.86
15056;BME280;7626;42.674;23.284;2022-12-18T04:47:58;95772.13;;;11.57;67.64
15056;BME280;7626;42.674;23.284;2022-12-18T04:50:27;95779.09;;;11.56;67.39
15056;BME280;7626;42.674;23.284;2022-12-18T04:52:53;95774.00;;;11.55;67.25
15056;BME280;7626;42.674;23.284;2022-12-18T04:55:20;95774.94;;;11.54;67.48
15056;BME280;7626;42.674;23.284;2022-12-18T04:57:47;95780.22;;;11.52;67.13
15056;BME280;7626;42.674;23.284;2022-12-18T05:00:14;95789.78;;;11.52;66.72
15056;BME280;7626;42.674;23.284;2022-12-18T05:02:41;95787.19;;;11.52;67.09
15056;BME280;7626;42.674;23.284;2022-12-18T05:05:09;95783.00;;;11.49;66.66
15056;BME280;7626;42.674;23.284;2022-12-18T05:07:37;95801.19;;;11.49;66.55
15056;BME280;7626;42.674;23.284;2022-12-18T05:10:07;95803.78;;;11.49;66.91
15056;BME280;7626;42.674;23.284;2022-12-18T05:12:34;95803.03;;;11.47;66.57
15056;BME280;7626;42.674;23.284;2022-12-18T05:15:21;95800.53;;;11.46;66.62
15056;BME280;7626;42.674;23.284;2022-12-18T05:17:48;95803.97;;;11.46;66.75
15056;BME280;7626;42.674;23.284;2022-12-18T05:20:15;95799.81;;;11.44;66.72
15056;BME280;7626;42.674;23.284;2022-12-18T05:22:43;95809.25;;;11.45;66.52
15056;BME280;7626;42.674;23.284;2022-12-18T05:25:09;95807.59;;;11.44;66.42
15056;BME280;7626;42.674;23.284;2022-12-18T05:27:36;95812.88;;;11.42;66.44
15056;BME280;7626;42.674;23.284;2022-12-18T05:30:03;95817.16;;;11.43;66.67
15056;BME280;7626;42.674;23.284;2022-12-18T05:32:30;95817.25;;;11.41;66.42
15056;BME280;7626;42.674;23.284;2022-12-18T05:34:57;95821.59;;;11.41;66.67
15056;BME280;7626;42.674;23.284;2022-12-18T05:37:24;95827.72;;;11.40;66.52
15056;BME280;7626;42.674;23.284;2022-12-18T05:39:52;95836.34;;;11.40;66.12
15056;BME280;7626;42.674;23.284;2022-12-18T05:42:19;95840.81;;;11.38;66.38
15056;BME280;7626;42.674;23.284;2022-12-18T05:44:45;95845.13;;;11.38;66.15
15056;BME280;7626;42.674;23.284;2022-12-18T05:47:12;95849.59;;;11.36;65.39
15056;BME280;7626;42.674;23.284;2022-12-18T05:49:39;95849.59;;;11.36;66.17
15056;BME280;7626;42.674;23.284;2022-12-18T05:52:06;95846.19;;;11.35;66.02
15056;BME280;7626;42.674;23.284;2022-12-18T05:54:33;95847.09;;;11.34;65.91
15056;BME280;7626;42.674;23.284;2022-12-18T05:57:01;95852.38;;;11.33;65.85
15056;BME280;7626;42.674;23.284;2022-12-18T05:59:28;95853.22;;;11.33;65.95
15056;BME280;7626;42.674;23.284;2022-12-18T06:01:54;95858.44;;;11.33;65.67
15056;BME280;7626;42.674;23.284;2022-12-18T06:04:21;95856.00;;;11.30;65.65
15056;BME280;7626;42.674;23.284;2022-12-18T06:06:48;95869.00;;;11.30;65.50
15056;BME280;7626;42.674;23.284;2022-12-18T06:09:15;95862.13;;;11.29;65.70
15056;BME280;7626;42.674;23.284;2022-12-18T06:11:42;95874.19;;;11.30;65.71
15056;BME280;7626;42.674;23.284;2022-12-18T06:14:10;95869.09;;;11.29;65.58
15056;BME280;7626;42.674;23.284;2022-12-18T06:16:36;95867.31;;;11.29;65.51
15056;BME280;7626;42.674;23.284;2022-12-18T06:19:05;95874.28;;;11.29;65.60
15056;BME280;7626;42.674;23.284;2022-12-18T06:21:32;95876.00;;;11.28;65.64
15056;BME280;7626;42.674;23.284;2022-12-18T06:24:00;95875.19;;;11.28;65.79
15056;BME280;7626;42.674;23.284;2022-12-18T06:26:26;95879.75;;;11.24;65.33
15056;BME280;7626;42.674;23.284;2022-12-18T06:28:53;95877.06;;;11.26;65.46
15056;BME280;7626;42.674;23.284;2022-12-18T06:31:21;95887.44;;;11.26;65.37
15056;BME280;7626;42.674;23.284;2022-12-18T06:33:48;95888.44;;;11.23;65.04
15056;BME280;7626;42.674;23.284;2022-12-18T06:36:15;95882.34;;;11.24;65.45
15056;BME280;7626;42.674;23.284;2022-12-18T06:38:42;95893.53;;;11.24;65.22
15056;BME280;7626;42.674;23.284;2022-12-18T06:41:11;95890.13;;;11.24;65.59
15056;BME280;7626;42.674;23.284;2022-12-18T06:43:38;95902.28;;;11.23;65.35
15056;BME280;7626;42.674;23.284;2022-12-18T06:46:05;95906.59;;;11.23;65.09
15056;BME280;7626;42.674;23.284;2022-12-18T06:48:33;95916.06;;;11.24;65.14
15056;BME280;7626;42.674;23.284;2022-12-18T06:51:00;95909.13;;;11.24;65.29
15056;BME280;7626;42.674;23.284;2022-12-18T06:53:27;95920.44;;;11.23;65.33
15056;BME280;7626;42.674;23.284;2022-12-18T06:55:59;95919.59;;;11.23;65.33
15056;BME280;7626;42.674;23.284;2022-12-18T06:58:27;95921.44;;;11.21;65.14
15056;BME280;7626;42.674;23.284;2022-12-18T07:00:54;95925.81;;;11.20;64.96
15056;BME280;7626;42.674;23.284;2022-12-18T07:03:25;95923.22;;;11.20;65.14
15056;BME280;7626;42.674;23.284;2022-12-18T07:05:53;95925.72;;;11.22;64.90
15056;BME280;7626;42.674;23.284;2022-12-18T07:08:20;95925.81;;;11.20;64.78
15056;BME280;7626;42.674;23.284;2022-12-18T07:10:46;95933.59;;;11.20;65.03
15056;BME280;7626;42.674;23.284;2022-12-18T07:13:15;95932.75;;;11.20;64.81
15056;BME280;7626;42.674;23.284;2022-12-18T07:15:41;95929.31;;;11.19;64.76
15056;BME280;7626;42.674;23.284;2022-12-18T07:18:08;95931.00;;;11.20;64.77
15056;BME280;7626;42.674;23.284;2022-12-18T07:20:35;95931.91;;;11.19;64.95
15056;BME280;7626;42.674;23.284;2022-12-18T07:23:04;95931.91;;;11.19;64.93
15056;BME280;7626;42.674;23.284;2022-12-18T07:25:33;95926.72;;;11.19;64.56
15056;BME280;7626;42.674;23.284;2022-12-18T07:28:00;95936.28;;;11.19;64.70
15056;BME280;7626;42.674;23.284;2022-12-18T07:30:27;95941.47;;;11.19;64.62
15056;BME280;7626;42.674;23.284;2022-12-18T07:32:53;95943.25;;;11.18;64.46
15056;BME280;7626;42.674;23.284;2022-12-18T07:35:20;95950.91;;;11.20;64.52
15056;BME280;7626;42.674;23.284;2022-12-18T07:37:47;95950.19;;;11.18;64.76
15056;BME280;7626;42.674;23.284;2022-12-18T07:40:15;95951.84;;;11.19;65.30
15056;BME280;7626;42.674;23.284;2022-12-18T07:42:42;95951.03;;;11.18;65.33
15056;BME280;7626;42.674;23.284;2022-12-18T07:45:09;95955.28;;;11.19;66.20
15056;BME280;7626;42.674;23.284;2022-12-18T07:47:36;95957.97;;;11.18;65.58
15056;BME280;7626;42.674;23.284;2022-12-18T07:50:04;95954.44;;;11.19;65.73
15056;BME280;7626;42.674;23.284;2022-12-18T07:52:31;95964.84;;;11.19;65.40
15056;BME280;7626;42.674;23.284;2022-12-18T07:54:58;95970.84;;;11.19;65.77
15056;BME280;7626;42.674;23.284;2022-12-18T07:57:26;95963.88;;;11.20;65.64
15056;BME280;7626;42.674;23.284;2022-12-18T07:59:53;95970.75;;;11.21;65.86
15056;BME280;7626;42.674;23.284;2022-12-18T08:02:19;95969.00;;;11.21;65.64
15056;BME280;7626;42.674;23.284;2022-12-18T08:04:46;95973.44;;;11.19;65.51
15056;BME280;7626;42.674;23.284;2022-12-18T08:07:13;95984.66;;;11.20;65.13
15056;BME280;7626;42.674;23.284;2022-12-18T08:09:40;95982.19;;;11.18;64.42
15056;BME280;7626;42.674;23.284;2022-12-18T08:12:06;95981.22;;;11.19;64.79
15056;BME280;7626;42.674;23.284;2022-12-18T08:14:34;95984.84;;;11.17;64.21
15056;BME280;7626;42.674;23.284;2022-12-18T08:17:01;95989.19;;;11.16;64.22
15056;BME280;7626;42.674;23.284;2022-12-18T08:19:28;96003.03;;;11.17;64.28
15056;BME280;7626;42.674;23.284;2022-12-18T08:21:55;96003.13;;;11.15;63.87
15056;BME280;7626;42.674;23.284;2022-12-18T08:24:22;95999.66;;;11.15;64.11
15056;BME280;7626;42.674;23.284;2022-12-18T08:26:49;96005.78;;;11.14;63.69
15056;BME280;7626;42.674;23.284;2022-12-18T08:29:15;96010.03;;;11.15;63.99
15056;BME280;7626;42.674;23.284;2022-12-18T08:31:44;96012.72;;;11.13;63.70
15056;BME280;7626;42.674;23.284;2022-12-18T08:34:10;96015.41;;;11.12;63.55
15056;BME280;7626;42.674;23.284;2022-12-18T08:36:37;96019.69;;;11.13;63.40
15056;BME280;7626;42.674;23.284;2022-12-18T08:39:04;96024.13;;;11.11;63.86
15056;BME280;7626;42.674;23.284;2022-12-18T08:41:31;96024.13;;;11.11;63.37
15056;BME280;7626;42.674;23.284;2022-12-18T08:43:57;96021.53;;;11.11;63.47
15056;BME280;7626;42.674;23.284;2022-12-18T08:46:45;96027.66;;;11.10;63.37
15056;BME280;7626;42.674;23.284;2022-12-18T08:49:12;96023.19;;;11.12;63.55
15056;BME280;7626;42.674;23.284;2022-12-18T08:51:39;96033.69;;;11.10;63.63
15056;BME280;7626;42.674;23.284;2022-12-18T08:54:06;96033.78;;;11.09;63.31
15056;BME280;7626;42.674;23.284;2022-12-18T08:56:33;96026.72;;;11.11;63.20
15056;BME280;7626;42.674;23.284;2022-12-18T08:59:01;96024.13;;;11.11;63.36
15056;BME280;7626;42.674;23.284;2022-12-18T09:01:27;96019.84;;;11.10;63.38
15056;BME280;7626;42.674;23.284;2022-12-18T09:03:56;96022.44;;;11.10;63.13
15056;BME280;7626;42.674;23.284;2022-12-18T09:06:23;96028.59;;;11.09;63.22
15056;BME280;7626;42.674;23.284;2022-12-18T09:08:51;96020.72;;;11.10;62.98
15056;BME280;7626;42.674;23.284;2022-12-18T09:11:20;96020.81;;;11.09;62.71
15056;BME280;7626;42.674;23.284;2022-12-18T09:13:48;96025.03;;;11.10;62.93
15056;BME280;7626;42.674;23.284;2022-12-18T09:16:15;96019.03;;;11.09;62.87
15056;BME280;7626;42.674;23.284;2022-12-18T09:18:42;96019.84;;;11.10;63.14
15056;BME280;7626;42.674;23.284;2022-12-18T09:21:13;96017.25;;;11.10;63.27
15056;BME280;7626;42.674;23.284;2022-12-18T09:23:40;96019.03;;;11.09;63.12
15056;BME280;7626;42.674;23.284;2022-12-18T09:26:07;96024.13;;;11.11;63.31
15056;BME280;7626;42.674;23.284;2022-12-18T09:28:34;96016.34;;;11.11;63.08
15056;BME280;7626;42.674;23.284;2022-12-18T09:31:04;96017.25;;;11.10;62.94
15056;BME280;7626;42.674;23.284;2022-12-18T09:33:32;96018.13;;;11.10;62.72
15056;BME280;7626;42.674;23.284;2022-12-18T09:36:01;96014.59;;;11.11;62.87
15056;BME280;7626;42.674;23.284;2022-12-18T09:38:29;96020.59;;;11.12;62.44
15056;BME280;7626;42.674;23.284;2022-12-18T09:40:59;96020.59;;;11.12;62.79
15056;BME280;7626;42.674;23.284;2022-12-18T09:43:31;96024.88;;;11.13;62.56
15056;BME280;7626;42.674;23.284;2022-12-18T09:46:03;96023.09;;;11.13;62.53
15056;BME280;7626;42.674;23.284;2022-12-18T09:48:35;96021.38;;;11.14;62.52
15056;BME280;7626;42.674;23.284;2022-12-18T09:51:09;96020.44;;;11.15;62.47
15056;BME280;7626;42.674;23.284;2022-12-18T09:53:41;96018.69;;;11.15;62.49
15056;BME280;7626;42.674;23.284;2022-12-18T09:56:12;96016.91;;;11.16;62.14
15056;BME280;7626;42.674;23.284;2022-12-18T09:58:44;96018.59;;;11.17;61.77
15056;BME280;7626;42.674;23.284;2022-12-18T10:01:20;96020.25;;;11.18;62.05
15056;BME280;7626;42.674;23.284;2022-12-18T10:03:48;96008.00;;;11.20;61.92
15056;BME280;7626;42.674;23.284;2022-12-18T10:06:19;96015.81;;;11.20;61.64
15056;BME280;7626;42.674;23.284;2022-12-18T10:08:54;96013.03;;;11.23;61.82
15056;BME280;7626;42.674;23.284;2022-12-18T10:11:34;96013.81;;;11.25;61.81
15056;BME280;7626;42.674;23.284;2022-12-18T10:14:09;96010.25;;;11.26;62.17
15056;BME280;7626;42.674;23.284;2022-12-18T10:16:43;96011.94;;;11.27;61.86
15056;BME280;7626;42.674;23.284;2022-12-18T10:19:24;96010.19;;;11.28;61.96
15056;BME280;7626;42.674;23.284;2022-12-18T10:22:00;96029.19;;;11.28;61.99
15056;BME280;7626;42.674;23.284;2022-12-18T10:24:36;96022.25;;;11.29;61.67
15056;BME280;7626;42.674;23.284;2022-12-18T10:27:12;96027.34;;;11.30;61.60
15056;BME280;7626;42.674;23.284;2022-12-18T10:29:41;96016.03;;;11.31;61.86
15056;BME280;7626;42.674;23.284;2022-12-18T10:32:14;96022.06;;;11.32;61.11
15056;BME280;7626;42.674;23.284;2022-12-18T10:34:44;96027.19;;;11.33;61.23
15056;BME280;7626;42.674;23.284;2022-12-18T10:37:16;96017.63;;;11.34;61.13
15056;BME280;7626;42.674;23.284;2022-12-18T10:39:45;96022.00;;;11.33;60.52
15056;BME280;7626;42.674;23.284;2022-12-18T10:42:17;96017.63;;;11.34;61.29
15056;BME280;7626;42.674;23.284;2022-12-18T10:44:44;96021.91;;;11.35;61.12
15056;BME280;7626;42.674;23.284;2022-12-18T10:47:14;96019.19;;;11.36;61.28
15056;BME280;7626;42.674;23.284;2022-12-18T10:49:47;96018.28;;;11.37;61.32
15056;BME280;7626;42.674;23.284;2022-12-18T10:52:18;96019.19;;;11.36;60.98
15056;BME280;7626;42.674;23.284;2022-12-18T10:54:52;96020.88;;;11.37;61.04
15056;BME280;7626;42.674;23.284;2022-12-18T10:57:31;96013.09;;;11.37;61.32
15056;BME280;7626;42.674;23.284;2022-12-18T11:00:03;96012.16;;;11.38;61.16
15056;BME280;7626;42.674;23.284;2022-12-18T11:02:40;96016.50;;;11.38;61.09
15056;BME280;7626;42.674;23.284;2022-12-18T11:05:25;96012.91;;;11.40;60.77
15056;BME280;7626;42.674;23.284;2022-12-18T11:07:54;96020.78;;;11.39;60.65
15056;BME280;7626;42.674;23.284;2022-12-18T11:10:25;96023.47;;;11.37;60.71
15056;BME280;7626;42.674;23.284;2022-12-18T11:12:52;96021.69;;;11.38;60.07
15056;BME280;7626;42.674;23.284;2022-12-18T11:15:21;96022.63;;;11.37;60.35
15056;BME280;7626;42.674;23.284;2022-12-18T11:17:51;96016.50;;;11.38;60.41
15056;BME280;7626;42.674;23.284;2022-12-18T11:20:29;96020.78;;;11.39;60.33
15056;BME280;7626;42.674;23.284;2022-12-18T11:22:58;96025.16;;;11.38;60.77
15056;BME280;7626;42.674;23.284;2022-12-18T11:25:27;96029.41;;;11.39;60.55
15056;BME280;7626;42.674;23.284;2022-12-18T11:27:56;96027.75;;;11.38;60.23
15056;BME280;7626;42.674;23.284;2022-12-18T11:30:26;96025.97;;;11.39;60.44
15056;BME280;7626;42.674;23.284;2022-12-18T11:33:01;96025.97;;;11.39;60.56
15056;BME280;7626;42.674;23.284;2022-12-18T11:35:39;96014.75;;;11.38;60.28
15056;BME280;7626;42.674;23.284;2022-12-18T11:38:18;96014.75;;;11.38;60.33
15056;BME280;7626;42.674;23.284;2022-12-18T11:40:53;96016.41;;;11.39;60.33
15056;BME280;7626;42.674;23.284;2022-12-18T11:43:27;96028.56;;;11.39;60.23
15056;BME280;7626;42.674;23.284;2022-12-18T11:45:59;96033.03;;;11.37;59.92
15056;BME280;7626;42.674;23.284;2022-12-18T11:48:30;96025.16;;;11.38;60.06
15056;BME280;7626;42.674;23.284;2022-12-18T11:51:02;96032.94;;;11.38;59.92
15056;BME280;7626;42.674;23.284;2022-12-18T11:53:31;96032.09;;;11.38;59.94
15056;BME280;7626;42.674;23.284;2022-12-18T11:56:29;96033.84;;;11.37;59.91
15056;BME280;7626;42.674;23.284;2022-12-18T11:59:02;96016.59;;;11.36;60.04
15056;BME280;7626;42.674;23.284;2022-12-18T12:01:43;96014.00;;;11.36;59.60
15056;BME280;7626;42.674;23.284;2022-12-18T12:04:33;96014.00;;;11.36;59.83
15056;BME280;7626;42.674;23.284;2022-12-18T12:07:17;96016.59;;;11.36;59.85
15056;BME280;7626;42.674;23.284;2022-12-18T12:09:52;96024.50;;;11.35;59.78
15056;BME280;7626;42.674;23.284;2022-12-18T12:12:34;96021.03;;;11.34;59.88
15056;BME280;7626;42.674;23.284;2022-12-18T12:15:19;96010.75;;;11.33;60.00
15056;BME280;7626;42.674;23.284;2022-12-18T12:17:54;96024.59;;;11.33;60.01
15056;BME280;7626;42.674;23.284;2022-12-18T12:20:30;96017.72;;;11.32;59.73
15056;BME280;7626;42.674;23.284;2022-12-18T12:23:06;96009.91;;;11.32;59.90
15056;BME280;7626;42.674;23.284;2022-12-18T12:25:43;96011.78;;;11.30;60.05
15056;BME280;7626;42.674;23.284;2022-12-18T12:28:20;96014.38;;;11.30;59.71
15056;BME280;7626;42.674;23.284;2022-12-18T12:30:59;96016.97;;;11.30;59.74
15056;BME280;7626;42.674;23.284;2022-12-18T12:33:38;96030.84;;;11.29;59.66
15056;BME280;7626;42.674;23.284;2022-12-18T12:36:14;96029.19;;;11.28;59.56
15056;BME280;7626;42.674;23.284;2022-12-18T12:38:47;96024.94;;;11.27;59.65
15056;BME280;7626;42.674;23.284;2022-12-18T12:41:19;96026.69;;;11.27;59.44
15056;BME280;7626;42.674;23.284;2022-12-18T12:44:09;96030.22;;;11.26;59.83
15056;BME280;7626;42.674;23.284;2022-12-18T12:46:41;96019.81;;;11.26;59.89
15056;BME280;7626;42.674;23.284;2022-12-18T12:49:12;96028.53;;;11.24;59.90
15056;BME280;7626;42.674;23.284;2022-12-18T12:51:43;96033.72;;;11.24;59.81
15056;BME280;7626;42.674;23.284;2022-12-18T12:54:15;96030.22;;;11.26;59.99
15056;BME280;7626;42.674;23.284;2022-12-18T12:56:48;96032.06;;;11.23;59.84
15056;BME280;7626;42.674;23.284;2022-12-18T12:59:25;96028.53;;;11.24;59.89
15056;BME280;7626;42.674;23.284;2022-12-18T13:01:59;96038.91;;;11.24;59.82
15056;BME280;7626;42.674;23.284;2022-12-18T13:04:37;96040.69;;;11.24;59.78
15056;BME280;7626;42.674;23.284;2022-12-18T13:07:14;96044.19;;;11.23;59.74
15056;BME280;7626;42.674;23.284;2022-12-18T13:10:13;96039.00;;;11.23;59.76
15056;BME280;7626;42.674;23.284;2022-12-18T13:12:53;96046.88;;;11.21;59.35
15056;BME280;7626;42.674;23.284;2022-12-18T13:15:27;96051.22;;;11.21;59.26
15056;BME280;7626;42.674;23.284;2022-12-18T13:18:16;96050.50;;;11.19;59.40